createdAt,value
2019-02-17T00:01:21.892Z,81.50
2019-02-17T00:03:49.942Z,80.70
2019-02-17T00:06:17.938Z,81.30
2019-02-17T00:08:45.900Z,81.20
2019-02-17T00:11:13.893Z,77.10
2019-02-17T00:13:41.952Z,82.27
2019-02-17T00:16:10.863Z,78.37
2019-02-17T00:18:38.818Z,82.87
2019-02-17T00:21:06.788Z,82.00
2019-02-17T00:23:34.750Z,81.30
2019-02-17T00:26:02.720Z,83.87
2019-02-17T00:28:30.702Z,78.23
2019-02-17T00:30:58.764Z,84.70
2019-02-17T00:33:26.751Z,81.43
2019-02-17T00:35:54.702Z,83.70
2019-02-17T00:38:22.590Z,80.37
2019-02-17T00:40:50.558Z,77.60
2019-02-17T00:43:18.602Z,77.30
2019-02-17T00:45:46.593Z,75.87
2019-02-17T00:48:14.653Z,75.57
2019-02-17T00:50:42.622Z,80.30
2019-02-17T00:53:10.617Z,76.97
2019-02-17T00:55:38.679Z,73.43
2019-02-17T00:58:06.622Z,78.23
2019-02-17T01:00:34.613Z,77.60
2019-02-17T01:03:02.602Z,77.23
2019-02-17T01:05:30.601Z,68.73
2019-02-17T01:07:58.495Z,73.00
2019-02-17T01:10:26.496Z,72.60
2019-02-17T01:12:54.458Z,74.53
2019-02-17T01:15:22.402Z,73.77
2019-02-17T01:17:50.416Z,73.30
2019-02-17T01:20:18.341Z,82.83
2019-02-17T01:22:46.330Z,79.53
2019-02-17T01:25:14.279Z,77.60
2019-02-17T01:27:42.261Z,75.97
2019-02-17T01:30:12.001Z,77.50
2019-02-17T01:32:40.064Z,89.43
2019-02-17T01:35:08.157Z,73.97
2019-02-17T01:37:36.183Z,74.60
2019-02-17T01:40:05.021Z,84.53
2019-02-17T01:42:33.041Z,73.90
2019-02-17T01:45:01.007Z,75.50
2019-02-17T01:47:28.992Z,83.73
2019-02-17T01:49:56.953Z,79.70
2019-02-17T01:52:24.927Z,74.67
2019-02-17T01:54:52.928Z,82.10
2019-02-17T01:57:20.981Z,75.27
2019-02-17T01:59:49.035Z,80.30
2019-02-17T02:02:17.007Z,77.53
2019-02-17T02:04:45.024Z,80.77
2019-02-17T02:07:13.045Z,78.27
2019-02-17T02:09:41.024Z,77.40
2019-02-17T02:12:08.963Z,77.73
2019-02-17T02:14:36.970Z,79.10
2019-02-17T02:17:05.006Z,73.30
2019-02-17T02:19:32.997Z,81.07
2019-02-17T02:22:01.175Z,76.40
2019-02-17T02:24:29.245Z,74.37
2019-02-17T02:26:57.282Z,79.03
2019-02-17T02:29:25.477Z,76.20
2019-02-17T02:31:53.434Z,75.97
2019-02-17T02:34:21.409Z,74.77
2019-02-17T02:36:49.425Z,79.27
2019-02-17T02:39:17.446Z,75.20
2019-02-17T02:41:46.447Z,76.27
2019-02-17T02:44:14.413Z,77.60
2019-02-17T02:46:42.407Z,78.47
2019-02-17T02:49:10.359Z,91.83
2019-02-17T02:51:38.333Z,75.67
2019-02-17T02:54:06.425Z,77.07
2019-02-17T02:56:34.351Z,81.17
2019-02-17T02:59:02.335Z,71.80
2019-02-17T03:01:30.291Z,76.47
2019-02-17T03:03:58.302Z,82.00
2019-02-17T03:06:32.676Z,75.93
2019-02-17T03:09:00.662Z,80.17
2019-02-17T03:11:28.659Z,75.30
2019-02-17T03:13:56.721Z,81.73
2019-02-17T03:16:24.796Z,77.90
2019-02-17T03:18:52.832Z,76.40
2019-02-17T03:21:20.814Z,79.47
2019-02-17T03:23:48.813Z,71.50
2019-02-17T03:26:16.786Z,74.10
2019-02-17T03:28:44.747Z,75.33
2019-02-17T03:31:12.779Z,75.47
2019-02-17T03:33:40.769Z,87.23
2019-02-17T03:36:08.755Z,76.90
2019-02-17T03:38:36.809Z,75.30
2019-02-17T03:41:04.776Z,76.13
2019-02-17T03:43:33.040Z,79.13
2019-02-17T03:46:01.012Z,80.13
2019-02-17T03:48:28.974Z,77.77
2019-02-17T03:50:57.371Z,78.57
2019-02-17T03:53:25.329Z,80.70
2019-02-17T03:55:53.294Z,77.30
2019-02-17T03:58:21.270Z,81.33
2019-02-17T04:00:49.219Z,80.53
2019-02-17T04:03:17.181Z,76.43
2019-02-17T04:05:45.105Z,81.70
2019-02-17T04:08:13.379Z,76.73
2019-02-17T04:10:41.524Z,80.87
2019-02-17T04:13:09.480Z,76.43
2019-02-17T04:15:37.582Z,84.30
2019-02-17T04:18:06.046Z,77.73
2019-02-17T04:20:34.029Z,75.90
2019-02-17T04:23:02.092Z,73.20
2019-02-17T04:25:30.068Z,74.63
2019-02-17T04:27:58.013Z,78.07
2019-02-17T04:30:29.581Z,77.43
2019-02-17T04:32:55.717Z,74.90
2019-02-17T04:35:23.673Z,80.47
2019-02-17T04:37:51.651Z,86.43
2019-02-17T04:40:19.580Z,75.63
2019-02-17T04:42:47.501Z,81.97
2019-02-17T04:45:15.430Z,78.07
2019-02-17T04:47:43.458Z,75.53
2019-02-17T04:50:11.495Z,78.33
2019-02-17T04:52:39.483Z,76.90
2019-02-17T04:55:07.729Z,73.10
2019-02-17T04:57:35.728Z,78.07
2019-02-17T05:00:03.973Z,78.13
2019-02-17T05:02:31.953Z,76.67
2019-02-17T05:05:00.002Z,85.40
2019-02-17T05:07:27.934Z,75.67
2019-02-17T05:09:55.969Z,84.60
2019-02-17T05:12:24.039Z,88.43
2019-02-17T05:14:52.024Z,81.40
2019-02-17T05:17:20.077Z,75.00
2019-02-17T05:19:48.046Z,73.40
2019-02-17T05:22:16.042Z,74.70
2019-02-17T05:24:44.088Z,72.97
2019-02-17T05:27:12.039Z,86.10
2019-02-17T05:29:40.048Z,79.17
2019-02-17T05:32:08.077Z,76.17
2019-02-17T05:34:36.102Z,82.23
2019-02-17T05:37:04.133Z,73.10
2019-02-17T05:39:32.119Z,76.50
2019-02-17T05:42:00.076Z,77.70
2019-02-17T05:44:28.364Z,76.97
2019-02-17T05:46:56.317Z,73.70
2019-02-17T05:49:24.284Z,75.60
2019-02-17T05:51:52.273Z,75.90
2019-02-17T05:54:20.223Z,79.10
2019-02-17T05:56:48.491Z,74.97
2019-02-17T05:59:16.472Z,72.57
2019-02-17T06:01:44.426Z,77.17
2019-02-17T06:04:12.397Z,75.87
2019-02-17T06:06:40.438Z,76.70
2019-02-17T06:09:08.750Z,75.40
2019-02-17T06:11:36.713Z,88.83
2019-02-17T06:14:04.681Z,78.47
2019-02-17T06:16:32.720Z,80.40
2019-02-17T06:19:00.645Z,90.70
2019-02-17T06:21:28.714Z,87.50
2019-02-17T06:23:56.777Z,87.43
2019-02-17T06:26:24.776Z,75.93
2019-02-17T06:28:52.700Z,77.00
2019-02-17T06:31:20.686Z,77.13
2019-02-17T06:33:48.654Z,75.83
2019-02-17T06:36:16.607Z,76.70
2019-02-17T06:38:44.611Z,71.80
2019-02-17T06:41:12.545Z,74.93
2019-02-17T06:43:40.537Z,74.00
2019-02-17T06:46:10.063Z,78.27
2019-02-17T06:48:38.039Z,84.90
2019-02-17T06:51:06.167Z,77.50
2019-02-17T06:53:34.245Z,86.37
2019-02-17T06:56:17.891Z,79.33
2019-02-17T06:58:45.851Z,80.00
2019-02-17T07:01:24.151Z,75.87
2019-02-17T07:03:43.591Z,80.50
2019-02-17T07:06:30.643Z,82.97
2019-02-17T07:08:59.215Z,83.87
2019-02-17T07:11:27.233Z,84.37
2019-02-17T07:13:55.294Z,87.17
2019-02-17T07:16:23.887Z,92.07
2019-02-17T07:18:51.936Z,89.03
2019-02-17T07:21:19.932Z,82.63
2019-02-17T07:23:47.963Z,91.07
2019-02-17T07:26:17.231Z,86.40
2019-02-17T07:28:45.427Z,90.17
2019-02-17T07:31:13.400Z,88.73
2019-02-17T07:33:41.895Z,95.47
2019-02-17T07:36:09.859Z,96.67
2019-02-17T07:38:37.815Z,98.50
2019-02-17T07:41:05.818Z,95.27
2019-02-17T07:43:33.755Z,98.50
2019-02-17T07:46:01.728Z,99.77
2019-02-17T07:48:29.722Z,102.47
2019-02-17T07:50:57.874Z,123.13
2019-02-17T07:53:26.149Z,133.40
2019-02-17T07:55:54.133Z,129.60
2019-02-17T07:58:22.193Z,115.70
2019-02-17T08:00:50.223Z,104.17
2019-02-17T08:03:18.181Z,97.40
2019-02-17T08:05:46.091Z,99.37
2019-02-17T08:08:14.074Z,94.17
2019-02-17T08:10:42.053Z,92.87
2019-02-17T08:13:10.025Z,91.37
2019-02-17T08:15:38.057Z,90.97
2019-02-17T08:18:06.409Z,94.07
2019-02-17T08:20:36.516Z,89.07
2019-02-17T08:23:04.219Z,96.77
2019-02-17T08:25:34.166Z,89.03
2019-02-17T08:28:02.200Z,92.00
2019-02-17T08:30:30.198Z,92.57
2019-02-17T08:32:58.432Z,88.77
2019-02-17T08:35:26.350Z,86.57
2019-02-17T08:37:54.433Z,84.80
2019-02-17T08:40:22.477Z,88.33
2019-02-17T08:42:50.459Z,89.40
2019-02-17T08:45:18.909Z,91.20
2019-02-17T08:47:46.907Z,89.60
2019-02-17T08:50:15.025Z,89.03
2019-02-17T08:52:43.104Z,86.53
2019-02-17T08:55:11.128Z,87.63
2019-02-17T08:57:39.220Z,86.07
2019-02-17T09:00:08.220Z,85.10
2019-02-17T09:02:36.156Z,92.47
2019-02-17T09:05:04.134Z,84.60
2019-02-17T09:07:32.749Z,90.67
2019-02-17T09:10:00.848Z,85.47
2019-02-17T09:12:28.866Z,89.07
2019-02-17T09:14:56.855Z,88.37
2019-02-17T09:17:25.024Z,91.27
2019-02-17T09:19:53.081Z,90.10
2019-02-17T09:22:21.077Z,89.03
2019-02-17T09:24:49.169Z,88.87
2019-02-17T09:27:17.075Z,91.53
2019-02-17T09:29:45.035Z,84.47
2019-02-17T09:32:16.276Z,81.27
2019-02-17T09:34:42.721Z,87.30
2019-02-17T09:37:10.685Z,89.67
2019-02-17T09:39:38.892Z,88.07
2019-02-17T09:42:06.860Z,83.03
2019-02-17T09:44:34.891Z,83.40
2019-02-17T09:47:03.200Z,82.97
2019-02-17T09:49:31.250Z,82.23
2019-02-17T09:51:59.214Z,82.43
2019-02-17T09:54:27.208Z,88.90
2019-02-17T09:56:56.290Z,81.33
2019-02-17T09:59:24.288Z,77.27
2019-02-17T10:01:52.492Z,82.70
2019-02-17T10:04:20.414Z,81.87
2019-02-17T10:06:48.387Z,82.77
2019-02-17T10:09:16.478Z,80.90
2019-02-17T10:11:44.549Z,83.33
2019-02-17T10:14:12.496Z,77.20
2019-02-17T10:16:40.434Z,80.70
2019-02-17T10:19:08.403Z,79.73
2019-02-17T10:21:36.414Z,79.20
2019-02-17T10:24:04.441Z,78.80
2019-02-17T10:26:32.445Z,78.90
2019-02-17T10:29:00.604Z,82.40
2019-02-17T10:31:28.593Z,77.70
2019-02-17T10:33:56.708Z,79.73
2019-02-17T10:36:24.622Z,82.17
2019-02-17T10:38:53.007Z,86.73
2019-02-17T10:41:20.945Z,79.13
2019-02-17T10:43:48.956Z,84.40
2019-02-17T10:46:17.138Z,80.63
2019-02-17T10:48:45.167Z,78.40
2019-02-17T10:51:13.176Z,77.97
2019-02-17T10:53:41.207Z,80.10
2019-02-17T10:56:09.216Z,80.80
2019-02-17T10:58:37.147Z,80.00
2019-02-17T11:01:05.123Z,79.47
2019-02-17T11:03:33.217Z,79.10
2019-02-17T11:06:01.348Z,82.80
2019-02-17T11:08:29.363Z,81.13
2019-02-17T11:10:57.339Z,80.40
2019-02-17T11:13:25.884Z,78.70
2019-02-17T11:15:53.842Z,77.20
2019-02-17T11:18:21.804Z,77.20
2019-02-17T11:20:50.201Z,77.23
2019-02-17T11:23:18.369Z,74.27
2019-02-17T11:25:46.621Z,78.33
2019-02-17T11:28:15.301Z,73.27
2019-02-17T11:30:44.251Z,79.63
2019-02-17T11:33:12.634Z,79.73
2019-02-17T11:35:40.699Z,79.83
2019-02-17T11:38:09.189Z,75.97
2019-02-17T11:40:37.158Z,78.13
2019-02-17T11:43:05.223Z,80.40
2019-02-17T11:45:34.059Z,74.73
2019-02-17T11:48:02.196Z,79.30
2019-02-17T11:50:30.706Z,81.47
2019-02-17T11:52:59.410Z,78.20
2019-02-17T11:55:28.022Z,72.10
2019-02-17T11:57:56.354Z,74.10
2019-02-17T12:00:24.483Z,82.30
2019-02-17T12:02:52.624Z,74.47
2019-02-17T12:05:21.129Z,78.67
2019-02-17T12:07:49.738Z,78.27
2019-02-17T12:10:17.849Z,75.50
2019-02-17T12:12:46.161Z,73.00
2019-02-17T12:15:14.607Z,77.27
2019-02-17T12:17:42.797Z,76.77
2019-02-17T12:20:34.700Z,76.50
2019-02-17T12:23:07.368Z,85.60
2019-02-17T12:25:40.659Z,74.97
2019-02-17T12:28:22.703Z,77.13
2019-02-17T12:30:51.490Z,74.57
2019-02-17T12:33:21.744Z,73.87
2019-02-17T12:35:49.916Z,83.73
2019-02-17T12:38:18.287Z,77.20
2019-02-17T12:40:46.809Z,76.90
2019-02-17T12:43:15.602Z,72.80
2019-02-17T12:45:43.523Z,75.93
2019-02-17T12:48:12.375Z,78.07
2019-02-17T12:50:40.526Z,85.23
2019-02-17T12:53:09.174Z,81.37
2019-02-17T12:55:37.559Z,76.17
2019-02-17T12:58:05.724Z,72.83
2019-02-17T13:00:33.839Z,72.50
2019-02-17T13:03:01.901Z,79.70
2019-02-17T13:05:30.399Z,79.70
2019-02-17T13:07:58.822Z,81.30
2019-02-17T13:10:27.304Z,73.40
2019-02-17T13:12:55.926Z,74.37
2019-02-17T13:15:24.074Z,75.80
2019-02-17T13:17:53.092Z,73.97
2019-02-17T13:20:21.341Z,74.80
2019-02-17T13:22:49.626Z,75.50
2019-02-17T13:25:17.675Z,79.47
2019-02-17T13:27:45.654Z,77.00
2019-02-17T13:30:15.314Z,76.47
2019-02-17T13:32:43.314Z,78.20
2019-02-17T13:35:11.313Z,71.07
2019-02-17T13:37:39.921Z,75.27
2019-02-17T13:40:08.614Z,72.40
2019-02-17T13:42:36.769Z,76.10
2019-02-17T13:45:04.728Z,74.23
2019-02-17T13:47:32.691Z,77.20
2019-02-17T13:50:00.669Z,80.10
2019-02-17T13:52:28.757Z,89.87
2019-02-17T13:54:56.795Z,80.00
2019-02-17T13:57:24.681Z,75.70
2019-02-17T13:59:52.665Z,72.40
2019-02-17T14:02:20.579Z,76.27
2019-02-17T14:04:48.551Z,81.37
2019-02-17T14:07:16.568Z,76.67
2019-02-17T14:09:45.136Z,77.67
2019-02-17T14:12:13.102Z,74.93
2019-02-17T14:14:41.202Z,71.43
2019-02-17T14:17:09.239Z,73.63
2019-02-17T14:19:37.297Z,75.17
2019-02-17T14:22:05.303Z,72.17
2019-02-17T14:24:33.227Z,72.90
2019-02-17T14:27:01.237Z,94.63
2019-02-17T14:29:29.298Z,80.30
2019-02-17T14:31:57.339Z,76.77
2019-02-17T14:34:25.334Z,78.87
2019-02-17T14:36:53.404Z,88.50
2019-02-17T14:39:21.481Z,81.27
2019-02-17T14:41:49.425Z,72.07
2019-02-17T14:44:17.409Z,73.27
2019-02-17T14:46:45.473Z,78.70
2019-02-17T14:49:13.523Z,71.33
2019-02-17T14:51:41.515Z,76.60
2019-02-17T14:54:09.493Z,73.70
2019-02-17T14:56:37.432Z,73.70
2019-02-17T14:59:05.412Z,71.80
2019-02-17T15:01:33.481Z,71.00
2019-02-17T15:04:08.271Z,74.53
2019-02-17T15:06:31.162Z,70.33
2019-02-17T15:08:59.065Z,80.63
2019-02-17T15:11:27.284Z,75.87
2019-02-17T15:13:55.325Z,83.50
2019-02-17T15:16:23.257Z,79.40
2019-02-17T15:18:51.248Z,78.67
2019-02-17T15:21:19.491Z,76.53
2019-02-17T15:23:47.551Z,72.77
2019-02-17T15:26:15.590Z,71.87
2019-02-17T15:28:50.573Z,73.50
2019-02-17T15:31:13.309Z,80.87
2019-02-17T15:33:41.297Z,75.53
2019-02-17T15:36:09.373Z,76.47
2019-02-17T15:38:37.431Z,81.70
2019-02-17T15:41:05.392Z,75.10
2019-02-17T15:43:33.391Z,71.17
2019-02-17T15:46:01.394Z,74.67
2019-02-17T15:48:29.420Z,73.70
2019-02-17T15:51:06.251Z,70.90
2019-02-17T15:53:27.118Z,72.27
2019-02-17T15:55:55.098Z,76.67
2019-02-17T15:58:23.163Z,85.23
2019-02-17T16:00:51.099Z,76.50
2019-02-17T16:03:19.058Z,76.57
2019-02-17T16:05:47.083Z,76.00
2019-02-17T16:08:15.052Z,77.93
2019-02-17T16:10:43.140Z,73.77
2019-02-17T16:13:11.048Z,78.30
2019-02-17T16:15:39.009Z,71.20
2019-02-17T16:18:06.990Z,72.87
2019-02-17T16:20:34.988Z,73.07
2019-02-17T16:23:03.873Z,78.80
2019-02-17T16:25:31.824Z,76.27
2019-02-17T16:27:59.757Z,78.80
2019-02-17T16:30:27.672Z,81.17
2019-02-17T16:32:55.609Z,80.00
2019-02-17T16:35:23.636Z,72.87
2019-02-17T16:37:52.020Z,77.83
2019-02-17T16:40:19.940Z,84.00
2019-02-17T16:42:48.048Z,82.47
2019-02-17T16:45:16.085Z,76.40
2019-02-17T16:47:44.567Z,77.20
2019-02-17T16:50:13.990Z,77.57
2019-02-17T16:52:42.044Z,76.93
2019-02-17T16:55:10.529Z,80.13
2019-02-17T16:57:38.579Z,73.63
2019-02-17T17:00:07.581Z,72.77
2019-02-17T17:02:35.662Z,80.30
2019-02-17T17:05:03.985Z,74.43
2019-02-17T17:07:31.998Z,76.20
2019-02-17T17:09:59.993Z,72.70
2019-02-17T17:12:28.216Z,73.97
2019-02-17T17:14:57.299Z,77.10
2019-02-17T17:17:25.400Z,74.73
2019-02-17T17:19:53.455Z,81.13
2019-02-17T17:22:21.758Z,79.90
2019-02-17T17:24:49.830Z,72.87
2019-02-17T17:27:17.815Z,76.10
2019-02-17T17:29:45.784Z,73.60
2019-02-17T17:32:13.855Z,78.07
2019-02-17T17:34:41.734Z,78.53
2019-02-17T17:37:09.955Z,72.67
2019-02-17T17:39:37.931Z,75.20
2019-02-17T17:42:05.935Z,77.50
2019-02-17T17:44:33.869Z,80.13
2019-02-17T17:47:02.232Z,80.67
2019-02-17T17:49:30.219Z,71.90
2019-02-17T17:51:58.220Z,75.87
2019-02-17T17:54:26.181Z,80.03
2019-02-17T17:56:54.332Z,79.60
2019-02-17T17:59:22.309Z,75.40
2019-02-17T18:01:50.300Z,78.90
2019-02-17T18:04:18.280Z,82.97
2019-02-17T18:06:46.333Z,75.27
2019-02-17T18:09:14.573Z,80.87
2019-02-17T18:11:42.589Z,74.23
2019-02-17T18:14:10.964Z,74.13
2019-02-17T18:16:38.908Z,79.80
2019-02-17T18:19:06.878Z,76.73
2019-02-17T18:21:34.901Z,83.47
2019-02-17T18:24:02.915Z,86.93
2019-02-17T18:26:31.193Z,79.90
2019-02-17T18:28:59.154Z,84.70
2019-02-17T18:31:27.137Z,78.03
2019-02-17T18:33:55.212Z,75.23
2019-02-17T18:36:23.191Z,78.07
2019-02-17T18:38:51.192Z,77.97
2019-02-17T18:41:19.370Z,79.77
2019-02-17T18:43:47.325Z,78.67
2019-02-17T18:46:15.248Z,79.53
2019-02-17T18:48:43.268Z,84.57
2019-02-17T18:51:11.233Z,78.03
2019-02-17T18:53:39.540Z,87.47
2019-02-17T18:56:07.548Z,87.80
2019-02-17T18:58:35.537Z,88.70
2019-02-17T19:01:03.503Z,94.67
2019-02-17T19:03:31.427Z,80.80
2019-02-17T19:05:59.847Z,91.73
2019-02-17T19:08:27.792Z,82.40
2019-02-17T19:10:55.782Z,88.77
2019-02-17T19:13:24.092Z,97.23
2019-02-17T19:15:53.685Z,88.23
2019-02-17T19:18:21.817Z,90.67
2019-02-17T19:20:50.637Z,90.40
2019-02-17T19:23:18.622Z,99.40
2019-02-17T19:25:46.594Z,84.13
2019-02-17T19:28:14.723Z,92.03
2019-02-17T19:30:42.717Z,81.47
2019-02-17T19:33:10.770Z,89.73
2019-02-17T19:35:41.975Z,80.77
2019-02-17T19:38:08.452Z,81.90
2019-02-17T19:40:36.936Z,80.20
2019-02-17T19:43:04.896Z,79.97
2019-02-17T19:45:33.115Z,80.63
2019-02-17T19:48:01.069Z,88.70
2019-02-17T19:50:29.107Z,84.10
2019-02-17T19:52:57.132Z,94.23
2019-02-17T19:55:25.061Z,100.60
2019-02-17T19:57:53.046Z,102.83
2019-02-17T20:00:21.124Z,92.60
2019-02-17T20:03:04.416Z,94.90
2019-02-17T20:05:35.361Z,83.57
2019-02-17T20:08:03.639Z,90.70
2019-02-17T20:10:31.594Z,82.77
2019-02-17T20:12:59.755Z,89.53
2019-02-17T20:15:30.182Z,88.43
2019-02-17T20:17:58.180Z,86.27
2019-02-17T20:20:26.243Z,81.20
2019-02-17T20:22:54.227Z,88.20
2019-02-17T20:25:22.195Z,83.87
2019-02-17T20:27:50.281Z,88.93
2019-02-17T20:30:18.324Z,88.33
2019-02-17T20:32:46.631Z,89.37
2019-02-17T20:35:14.683Z,82.13
2019-02-17T20:37:42.640Z,83.13
2019-02-17T20:40:10.664Z,89.87
2019-02-17T20:42:38.715Z,78.07
2019-02-17T20:45:07.207Z,84.60
2019-02-17T20:47:35.265Z,87.80
2019-02-17T20:50:03.315Z,86.40
2019-02-17T20:52:31.297Z,80.13
2019-02-17T20:54:59.313Z,83.50
2019-02-17T20:57:27.708Z,90.43
2019-02-17T20:59:55.696Z,90.27
2019-02-17T21:02:23.670Z,91.30
2019-02-17T21:04:51.690Z,87.10
2019-02-17T21:07:19.609Z,90.07
2019-02-17T21:09:47.600Z,92.10
2019-02-17T21:12:15.547Z,85.10
2019-02-17T21:14:43.530Z,81.90
2019-02-17T21:17:11.538Z,82.40
2019-02-17T21:19:39.544Z,76.73
2019-02-17T21:22:07.562Z,82.27
2019-02-17T21:24:35.614Z,86.00
2019-02-17T21:27:03.581Z,92.27
2019-02-17T21:29:31.531Z,89.23
2019-02-17T21:31:59.485Z,93.40
2019-02-17T21:34:27.507Z,85.77
2019-02-17T21:36:55.545Z,85.93
2019-02-17T21:39:23.633Z,88.47
2019-02-17T21:41:51.679Z,76.27
2019-02-17T21:44:19.638Z,80.13
2019-02-17T21:46:47.639Z,83.50
2019-02-17T21:49:15.649Z,79.87
2019-02-17T21:51:43.644Z,82.13
2019-02-17T21:54:11.887Z,81.97
2019-02-17T21:56:39.893Z,83.77
2019-02-17T21:59:07.875Z,81.37
2019-02-17T22:01:35.874Z,77.80
2019-02-17T22:04:03.810Z,78.27
2019-02-17T22:06:33.760Z,79.60
2019-02-17T22:09:01.496Z,80.60
2019-02-17T22:11:29.459Z,83.10
2019-02-17T22:13:57.488Z,81.43
2019-02-17T22:16:25.532Z,87.50
2019-02-17T22:18:53.511Z,83.93
2019-02-17T22:21:21.424Z,76.60
2019-02-17T22:23:49.440Z,81.10
2019-02-17T22:26:18.637Z,74.70
2019-02-17T22:28:46.612Z,83.70
2019-02-17T22:31:14.579Z,76.43
2019-02-17T22:33:42.644Z,79.93
2019-02-17T22:36:10.583Z,79.00
2019-02-17T22:38:38.659Z,83.07
2019-02-17T22:41:06.631Z,85.70
2019-02-17T22:43:34.625Z,80.27
2019-02-17T22:46:02.584Z,74.83
2019-02-17T22:48:30.639Z,85.53
2019-02-17T22:50:58.623Z,78.10
2019-02-17T22:53:26.569Z,82.83
2019-02-17T22:55:54.549Z,72.77
2019-02-17T22:58:22.528Z,78.77
2019-02-17T23:01:11.630Z,76.97
2019-02-17T23:03:39.635Z,81.30
2019-02-17T23:06:07.635Z,74.90
2019-02-17T23:08:35.679Z,73.90
2019-02-17T23:11:03.653Z,79.43
2019-02-17T23:13:31.644Z,75.73
2019-02-17T23:16:00.560Z,83.17
2019-02-17T23:18:28.437Z,77.93
2019-02-17T23:20:56.475Z,79.47
2019-02-17T23:23:24.433Z,73.10
2019-02-17T23:25:52.386Z,75.03
2019-02-17T23:28:20.380Z,75.57
2019-02-17T23:30:48.447Z,72.10
2019-02-17T23:33:16.403Z,74.40
2019-02-17T23:35:44.362Z,75.27
2019-02-17T23:38:12.362Z,71.87
2019-02-17T23:40:40.308Z,77.93
2019-02-17T23:43:08.299Z,73.80
2019-02-17T23:45:36.276Z,76.27
2019-02-17T23:48:04.221Z,71.30
2019-02-17T23:50:32.184Z,79.73
2019-02-17T23:53:00.148Z,77.80
2019-02-17T23:55:28.112Z,72.20
2019-02-17T23:57:56.096Z,74.50
